sensor_id;sensor_type;location;lat;lon;timestamp;pressure;altitude;pressure_sealevel;temperature;humidity
67009;BME280;53922;52.080;4.748;2022-07-23T00:00:29;101839.47;;;15.01;90.36
67009;BME280;53922;52.080;4.748;2022-07-23T00:02:54;101846.47;;;14.96;91.03
67009;BME280;53922;52.080;4.748;2022-07-23T00:05:19;101850.84;;;14.92;91.33
67009;BME280;53922;52.080;4.748;2022-07-23T00:07:44;101851.78;;;14.94;91.73
67009;BME280;53922;52.080;4.748;2022-07-23T00:10:10;101838.56;;;14.99;92.10
67009;BME280;53922;52.080;4.748;2022-07-23T00:12:35;101849.94;;;14.90;91.80
67009;BME280;53922;52.080;4.748;2022-07-23T00:15:03;101848.16;;;14.87;92.13
67009;BME280;53922;52.080;4.748;2022-07-23T00:17:29;101847.22;;;14.85;91.94
67009;BME280;53922;52.080;4.748;2022-07-23T00:19:54;101847.22;;;14.87;92.15
67009;BME280;53922;52.080;4.748;2022-07-23T00:22:19;101841.03;;;14.85;92.76
67009;BME280;53922;52.080;4.748;2022-07-23T00:24:45;101833.94;;;14.85;92.78
67009;BME280;53922;52.080;4.748;2022-07-23T00:27:10;101833.94;;;14.85;93.02
67009;BME280;53922;52.080;4.748;2022-07-23T00:29:35;101834.00;;;14.90;92.63
67009;BME280;53922;52.080;4.748;2022-07-23T00:32:00;101835.69;;;14.83;92.39
67009;BME280;53922;52.080;4.748;2022-07-23T00:34:26;101828.53;;;14.81;92.16
67009;BME280;53922;52.080;4.748;2022-07-23T00:36:51;101817.13;;;14.83;92.50
67009;BME280;53922;52.080;4.748;2022-07-23T00:39:18;101810.00;;;14.82;92.39
67009;BME280;53922;52.080;4.748;2022-07-23T00:41:43;101818.88;;;14.84;92.30
67009;BME280;53922;52.080;4.748;2022-07-23T00:44:22;101810.00;;;14.82;92.22
67009;BME280;53922;52.080;4.748;2022-07-23T00:46:49;101802.91;;;14.81;92.21
67009;BME280;53922;52.080;4.748;2022-07-23T00:49:14;101803.75;;;14.77;92.18
67009;BME280;53922;52.080;4.748;2022-07-23T00:51:40;101805.38;;;14.69;92.47
67009;BME280;53922;52.080;4.748;2022-07-23T00:54:05;101802.72;;;14.69;92.51
67009;BME280;53922;52.080;4.748;2022-07-23T00:56:31;101810.66;;;14.67;92.62
67009;BME280;53922;52.080;4.748;2022-07-23T00:58:57;101808.75;;;14.61;92.61
67009;BME280;53922;52.080;4.748;2022-07-23T01:01:23;101814.97;;;14.62;92.48
67009;BME280;53922;52.080;4.748;2022-07-23T01:03:49;101806.88;;;14.54;92.66
67009;BME280;53922;52.080;4.748;2022-07-23T01:06:14;101802.50;;;14.58;92.90
67009;BME280;53922;52.080;4.748;2022-07-23T01:08:39;101805.16;;;14.58;92.83
67009;BME280;53922;52.080;4.748;2022-07-23T01:11:04;101800.69;;;14.54;92.45
67009;BME280;53922;52.080;4.748;2022-07-23T01:13:30;101797.19;;;14.56;92.62
67009;BME280;53922;52.080;4.748;2022-07-23T01:15:55;101790.94;;;14.54;92.68
67009;BME280;53922;52.080;4.748;2022-07-23T01:18:20;101791.84;;;14.53;92.50
67009;BME280;53922;52.080;4.748;2022-07-23T01:20:46;101786.47;;;14.50;92.54
67009;BME280;53922;52.080;4.748;2022-07-23T01:23:11;101790.81;;;14.47;92.82
67009;BME280;53922;52.080;4.748;2022-07-23T01:25:36;101794.34;;;14.45;92.60
67009;BME280;53922;52.080;4.748;2022-07-23T01:28:01;101792.53;;;14.43;92.67
67009;BME280;53922;52.080;4.748;2022-07-23T01:30:27;101777.44;;;14.39;93.07
67009;BME280;53922;52.080;4.748;2022-07-23T01:32:52;101783.66;;;14.39;93.57
67009;BME280;53922;52.080;4.748;2022-07-23T01:35:17;101785.41;;;14.39;93.13
67009;BME280;53922;52.080;4.748;2022-07-23T01:37:42;101786.25;;;14.38;93.10
67009;BME280;53922;52.080;4.748;2022-07-23T01:40:08;101788.88;;;14.35;92.82
67009;BME280;53922;52.080;4.748;2022-07-23T01:42:33;101797.66;;;14.31;92.73
67009;BME280;53922;52.080;4.748;2022-07-23T01:44:59;101801.06;;;14.23;93.24
67009;BME280;53922;52.080;4.748;2022-07-23T01:47:24;101800.03;;;14.17;93.50
67009;BME280;53922;52.080;4.748;2022-07-23T01:49:49;101800.88;;;14.12;93.75
67009;BME280;53922;52.080;4.748;2022-07-23T01:52:14;101795.56;;;14.12;94.36
67009;BME280;53922;52.080;4.748;2022-07-23T01:54:39;101791.16;;;14.13;94.48
67009;BME280;53922;52.080;4.748;2022-07-23T01:57:05;101792.00;;;14.10;94.54
67009;BME280;53922;52.080;4.748;2022-07-23T01:59:31;101796.31;;;14.05;94.51
67009;BME280;53922;52.080;4.748;2022-07-23T02:01:57;101798.00;;;14.00;94.61
67009;BME280;53922;52.080;4.748;2022-07-23T02:04:22;101797.94;;;13.95;94.92
67009;BME280;53922;52.080;4.748;2022-07-23T02:06:48;101799.66;;;13.95;95.44
67009;BME280;53922;52.080;4.748;2022-07-23T02:09:14;101796.13;;;13.93;95.75
67009;BME280;53922;52.080;4.748;2022-07-23T02:11:39;101798.69;;;13.90;95.42
67009;BME280;53922;52.080;4.748;2022-07-23T02:14:05;101797.75;;;13.88;95.38
67009;BME280;53922;52.080;4.748;2022-07-23T02:16:30;101790.72;;;13.88;95.90
67009;BME280;53922;52.080;4.748;2022-07-23T02:18:55;101793.50;;;13.94;96.33
67009;BME280;53922;52.080;4.748;2022-07-23T02:21:20;101794.38;;;13.95;95.86
67009;BME280;53922;52.080;4.748;2022-07-23T02:23:46;101796.13;;;13.94;95.58
67009;BME280;53922;52.080;4.748;2022-07-23T02:26:11;101796.13;;;13.94;95.55
67009;BME280;53922;52.080;4.748;2022-07-23T02:28:36;101797.03;;;13.95;95.99
67009;BME280;53922;52.080;4.748;2022-07-23T02:31:01;101793.53;;;13.98;95.61
67009;BME280;53922;52.080;4.748;2022-07-23T02:33:27;101790.84;;;13.96;95.53
67009;BME280;53922;52.080;4.748;2022-07-23T02:35:52;101794.38;;;13.95;95.63
67009;BME280;53922;52.080;4.748;2022-07-23T02:38:17;101797.00;;;13.93;95.47
67009;BME280;53922;52.080;4.748;2022-07-23T02:40:43;101802.25;;;13.90;95.37
67009;BME280;53922;52.080;4.748;2022-07-23T02:43:08;101802.25;;;13.90;95.76
67009;BME280;53922;52.080;4.748;2022-07-23T02:45:33;101798.69;;;13.90;95.91
67009;BME280;53922;52.080;4.748;2022-07-23T02:47:58;101798.69;;;13.90;95.78
67009;BME280;53922;52.080;4.748;2022-07-23T02:50:23;101799.56;;;13.89;96.03
67009;BME280;53922;52.080;4.748;2022-07-23T02:52:49;101807.50;;;13.87;96.52
67009;BME280;53922;52.080;4.748;2022-07-23T02:55:14;101812.75;;;13.84;96.06
67009;BME280;53922;52.080;4.748;2022-07-23T02:57:39;101815.41;;;13.84;96.64
67009;BME280;53922;52.080;4.748;2022-07-23T03:00:05;101813.59;;;13.82;96.84
67009;BME280;53922;52.080;4.748;2022-07-23T03:02:31;101810.94;;;13.82;96.69
67009;BME280;53922;52.080;4.748;2022-07-23T03:04:56;101815.22;;;13.76;96.77
67009;BME280;53922;52.080;4.748;2022-07-23T03:07:21;101803.63;;;13.71;96.78
67009;BME280;53922;52.080;4.748;2022-07-23T03:09:47;101807.97;;;13.68;96.75
67009;BME280;53922;52.080;4.748;2022-07-23T03:12:12;101804.44;;;13.67;97.10
67009;BME280;53922;52.080;4.748;2022-07-23T03:14:37;101815.94;;;13.68;96.82
67009;BME280;53922;52.080;4.748;2022-07-23T03:17:02;101812.44;;;13.69;96.62
67009;BME280;53922;52.080;4.748;2022-07-23T03:19:28;101801.94;;;13.75;97.16
67009;BME280;53922;52.080;4.748;2022-07-23T03:21:53;101803.88;;;13.84;96.82
67009;BME280;53922;52.080;4.748;2022-07-23T03:24:18;101803.03;;;13.86;96.71
67009;BME280;53922;52.080;4.748;2022-07-23T03:26:44;101792.44;;;13.86;95.99
67009;BME280;53922;52.080;4.748;2022-07-23T03:29:09;101802.19;;;13.87;95.51
67009;BME280;53922;52.080;4.748;2022-07-23T03:31:34;101796.00;;;13.87;95.26
67009;BME280;53922;52.080;4.748;2022-07-23T03:34:00;101799.50;;;13.84;95.13
67009;BME280;53922;52.080;4.748;2022-07-23T03:36:25;101807.44;;;13.84;95.50
67009;BME280;53922;52.080;4.748;2022-07-23T03:38:50;101797.69;;;13.83;95.73
67009;BME280;53922;52.080;4.748;2022-07-23T03:41:16;101791.47;;;13.81;95.40
67009;BME280;53922;52.080;4.748;2022-07-23T03:43:41;101796.75;;;13.81;95.85
67009;BME280;53922;52.080;4.748;2022-07-23T03:46:06;101799.41;;;13.81;96.01
67009;BME280;53922;52.080;4.748;2022-07-23T03:48:31;101794.97;;;13.80;96.48
67009;BME280;53922;52.080;4.748;2022-07-23T03:50:57;101801.19;;;13.80;96.69
67009;BME280;53922;52.080;4.748;2022-07-23T03:53:22;101793.19;;;13.79;96.83
67009;BME280;53922;52.080;4.748;2022-07-23T03:55:47;101800.22;;;13.77;96.63
67009;BME280;53922;52.080;4.748;2022-07-23T03:58:12;101791.34;;;13.75;96.69
67009;BME280;53922;52.080;4.748;2022-07-23T04:00:38;101801.94;;;13.73;96.51
67009;BME280;53922;52.080;4.748;2022-07-23T04:03:03;101806.38;;;13.76;96.78
67009;BME280;53922;52.080;4.748;2022-07-23T04:05:28;101804.56;;;13.73;96.78
67009;BME280;53922;52.080;4.748;2022-07-23T04:07:53;101814.25;;;13.71;96.64
67009;BME280;53922;52.080;4.748;2022-07-23T04:10:19;101822.97;;;13.66;97.24
67009;BME280;53922;52.080;4.748;2022-07-23T04:12:44;101830.03;;;13.65;96.92
67009;BME280;53922;52.080;4.748;2022-07-23T04:15:09;101832.75;;;13.68;96.96
67009;BME280;53922;52.080;4.748;2022-07-23T04:17:35;101831.94;;;13.72;96.75
67009;BME280;53922;52.080;4.748;2022-07-23T04:20:00;101824.13;;;13.80;96.88
67009;BME280;53922;52.080;4.748;2022-07-23T04:22:25;101814.47;;;13.84;96.41
67009;BME280;53922;52.080;4.748;2022-07-23T04:24:51;101819.75;;;13.82;96.25
67009;BME280;53922;52.080;4.748;2022-07-23T04:27:16;101821.53;;;13.82;96.29
67009;BME280;53922;52.080;4.748;2022-07-23T04:29:41;101823.28;;;13.81;96.55
67009;BME280;53922;52.080;4.748;2022-07-23T04:32:06;101829.44;;;13.80;96.77
67009;BME280;53922;52.080;4.748;2022-07-23T04:34:31;101829.44;;;13.80;96.95
67009;BME280;53922;52.080;4.748;2022-07-23T04:36:57;101832.16;;;13.83;96.92
67009;BME280;53922;52.080;4.748;2022-07-23T04:39:22;101822.50;;;13.87;96.74
67009;BME280;53922;52.080;4.748;2022-07-23T04:41:47;101820.75;;;13.89;96.56
67009;BME280;53922;52.080;4.748;2022-07-23T04:44:13;101827.03;;;13.92;96.89
67009;BME280;53922;52.080;4.748;2022-07-23T04:46:38;101827.97;;;13.94;97.36
67009;BME280;53922;52.080;4.748;2022-07-23T04:49:03;101829.78;;;13.97;97.50
67009;BME280;53922;52.080;4.748;2022-07-23T04:51:29;101829.88;;;14.02;97.33
67009;BME280;53922;52.080;4.748;2022-07-23T04:53:54;101830.03;;;14.11;97.00
67009;BME280;53922;52.080;4.748;2022-07-23T04:56:19;101833.75;;;14.22;96.99
67009;BME280;53922;52.080;4.748;2022-07-23T04:58:44;101838.13;;;14.20;95.00
67009;BME280;53922;52.080;4.748;2022-07-23T05:01:10;101845.44;;;14.32;94.66
67009;BME280;53922;52.080;4.748;2022-07-23T05:03:35;101844.75;;;14.45;94.58
67009;BME280;53922;52.080;4.748;2022-07-23T05:06:00;101849.31;;;14.54;94.02
67009;BME280;53922;52.080;4.748;2022-07-23T05:08:26;101842.41;;;14.63;93.64
67009;BME280;53922;52.080;4.748;2022-07-23T05:10:51;101849.56;;;14.67;92.56
67009;BME280;53922;52.080;4.748;2022-07-23T05:13:17;101840.81;;;14.72;91.97
67009;BME280;53922;52.080;4.748;2022-07-23T05:15:42;101845.31;;;14.78;91.97
67009;BME280;53922;52.080;4.748;2022-07-23T05:18:08;101839.16;;;14.79;92.19
67009;BME280;53922;52.080;4.748;2022-07-23T05:20:33;101839.13;;;14.76;91.61
67009;BME280;53922;52.080;4.748;2022-07-23T05:22:58;101840.91;;;14.77;91.80
67009;BME280;53922;52.080;4.748;2022-07-23T05:25:23;101840.00;;;14.76;92.19
67009;BME280;53922;52.080;4.748;2022-07-23T05:27:49;101841.06;;;14.89;92.08
67009;BME280;53922;52.080;4.748;2022-07-23T05:30:14;101850.25;;;15.10;91.06
67009;BME280;53922;52.080;4.748;2022-07-23T05:32:39;101848.78;;;15.32;89.91
67009;BME280;53922;52.080;4.748;2022-07-23T05:35:05;101857.09;;;15.58;88.47
67009;BME280;53922;52.080;4.748;2022-07-23T05:37:31;101849.56;;;15.94;85.41
67009;BME280;53922;52.080;4.748;2022-07-23T05:39:59;101848.97;;;16.26;82.84
67009;BME280;53922;52.080;4.748;2022-07-23T05:42:24;101852.69;;;16.42;80.13
67009;BME280;53922;52.080;4.748;2022-07-23T05:44:49;101848.47;;;16.67;80.73
67009;BME280;53922;52.080;4.748;2022-07-23T05:47:15;101845.13;;;16.93;79.71
67009;BME280;53922;52.080;4.748;2022-07-23T05:49:40;101853.25;;;17.13;78.39
67009;BME280;53922;52.080;4.748;2022-07-23T05:52:06;101847.09;;;17.25;78.17
67009;BME280;53922;52.080;4.748;2022-07-23T05:54:33;101855.16;;;17.34;77.48
67009;BME280;53922;52.080;4.748;2022-07-23T05:56:59;101854.28;;;17.37;75.72
67009;BME280;53922;52.080;4.748;2022-07-23T05:59:24;101856.91;;;17.32;76.20
67009;BME280;53922;52.080;4.748;2022-07-23T06:01:49;101854.22;;;17.26;76.27
67009;BME280;53922;52.080;4.748;2022-07-23T06:04:14;101859.53;;;17.25;77.39
67009;BME280;53922;52.080;4.748;2022-07-23T06:06:40;101854.13;;;17.12;76.73
67009;BME280;53922;52.080;4.748;2022-07-23T06:09:05;101856.75;;;17.08;76.62
67009;BME280;53922;52.080;4.748;2022-07-23T06:11:30;101855.00;;;17.07;77.90
67009;BME280;53922;52.080;4.748;2022-07-23T06:13:55;101866.50;;;16.99;77.63
67009;BME280;53922;52.080;4.748;2022-07-23T06:16:20;101857.63;;;17.00;77.30
67009;BME280;53922;52.080;4.748;2022-07-23T06:18:46;101861.31;;;17.26;78.60
67009;BME280;53922;52.080;4.748;2022-07-23T06:21:11;101856.97;;;17.45;77.78
67009;BME280;53922;52.080;4.748;2022-07-23T06:23:36;101858.00;;;17.78;76.13
67009;BME280;53922;52.080;4.748;2022-07-23T06:26:01;101867.94;;;18.28;74.47
67009;BME280;53922;52.080;4.748;2022-07-23T06:28:26;101871.50;;;18.50;73.22
67009;BME280;53922;52.080;4.748;2022-07-23T06:30:52;101876.84;;;18.33;72.51
67009;BME280;53922;52.080;4.748;2022-07-23T06:33:17;101872.38;;;18.12;72.33
67009;BME280;53922;52.080;4.748;2022-07-23T06:35:42;101874.13;;;18.12;73.17
67009;BME280;53922;52.080;4.748;2022-07-23T06:38:07;101873.19;;;17.94;74.97
67009;BME280;53922;52.080;4.748;2022-07-23T06:40:32;101863.38;;;17.92;74.67
67009;BME280;53922;52.080;4.748;2022-07-23T06:42:58;101871.38;;;17.87;74.71
67009;BME280;53922;52.080;4.748;2022-07-23T06:45:23;101863.28;;;17.64;75.69
67009;BME280;53922;52.080;4.748;2022-07-23T06:47:48;101862.38;;;17.59;74.63
67009;BME280;53922;52.080;4.748;2022-07-23T06:50:13;101863.25;;;17.55;76.21
67009;BME280;53922;52.080;4.748;2022-07-23T06:52:39;101864.22;;;17.78;76.61
67009;BME280;53922;52.080;4.748;2022-07-23T06:55:04;101877.56;;;17.83;74.28
67009;BME280;53922;52.080;4.748;2022-07-23T06:57:29;101870.56;;;18.11;75.04
67009;BME280;53922;52.080;4.748;2022-07-23T06:59:54;101881.25;;;18.02;73.05
67009;BME280;53922;52.080;4.748;2022-07-23T07:02:20;101880.38;;;18.12;72.98
67009;BME280;53922;52.080;4.748;2022-07-23T07:04:45;101884.84;;;18.23;70.80
67009;BME280;53922;52.080;4.748;2022-07-23T07:07:10;101890.22;;;18.66;71.30
67009;BME280;53922;52.080;4.748;2022-07-23T07:09:36;101893.78;;;18.71;70.70
67009;BME280;53922;52.080;4.748;2022-07-23T07:12:02;101887.56;;;18.86;70.56
67009;BME280;53922;52.080;4.748;2022-07-23T07:14:28;101895.53;;;18.85;70.19
67009;BME280;53922;52.080;4.748;2022-07-23T07:16:53;101890.22;;;18.72;70.07
67009;BME280;53922;52.080;4.748;2022-07-23T07:19:18;101895.56;;;18.66;69.95
67009;BME280;53922;52.080;4.748;2022-07-23T07:21:43;101894.69;;;18.55;70.47
67009;BME280;53922;52.080;4.748;2022-07-23T07:24:09;101900.91;;;18.54;70.48
67009;BME280;53922;52.080;4.748;2022-07-23T07:26:34;101884.88;;;19.08;68.84
67009;BME280;53922;52.080;4.748;2022-07-23T07:28:59;101888.34;;;19.50;65.64
67009;BME280;53922;52.080;4.748;2022-07-23T07:31:25;101895.38;;;19.71;65.02
67009;BME280;53922;52.080;4.748;2022-07-23T07:33:50;101893.63;;;19.67;65.56
67009;BME280;53922;52.080;4.748;2022-07-23T07:36:15;101898.94;;;19.78;64.81
67009;BME280;53922;52.080;4.748;2022-07-23T07:38:41;101892.78;;;19.54;65.00
67009;BME280;53922;52.080;4.748;2022-07-23T07:41:06;101899.06;;;19.44;64.80
67009;BME280;53922;52.080;4.748;2022-07-23T07:43:32;101902.69;;;19.23;65.23
67009;BME280;53922;52.080;4.748;2022-07-23T07:45:57;101902.66;;;19.13;64.80
67009;BME280;53922;52.080;4.748;2022-07-23T07:48:24;101906.25;;;19.05;67.29
67009;BME280;53922;52.080;4.748;2022-07-23T07:50:49;101914.25;;;18.83;66.32
67009;BME280;53922;52.080;4.748;2022-07-23T07:53:14;101897.34;;;18.93;67.01
67009;BME280;53922;52.080;4.748;2022-07-23T07:55:39;101900.03;;;18.90;68.38
67009;BME280;53922;52.080;4.748;2022-07-23T07:58:04;101901.81;;;18.91;67.12
67009;BME280;53922;52.080;4.748;2022-07-23T08:00:30;101907.16;;;18.99;66.73
67009;BME280;53922;52.080;4.748;2022-07-23T08:02:55;101912.50;;;19.05;66.59
67009;BME280;53922;52.080;4.748;2022-07-23T08:05:24;101912.50;;;19.02;64.83
67009;BME280;53922;52.080;4.748;2022-07-23T08:07:50;101916.06;;;19.17;64.76
67009;BME280;53922;52.080;4.748;2022-07-23T08:10:15;101916.91;;;19.34;65.85
67009;BME280;53922;52.080;4.748;2022-07-23T08:12:51;101916.88;;;19.46;64.56
67009;BME280;53922;52.080;4.748;2022-07-23T08:15:19;101920.44;;;19.45;63.92
67009;BME280;53922;52.080;4.748;2022-07-23T08:17:45;101912.44;;;19.45;64.20
67009;BME280;53922;52.080;4.748;2022-07-23T08:20:12;101923.94;;;19.60;64.75
67009;BME280;53922;52.080;4.748;2022-07-23T08:25:21;101918.66;;;19.48;62.74
67009;BME280;53922;52.080;4.748;2022-07-23T08:27:47;101919.50;;;19.56;63.15
67009;BME280;53922;52.080;4.748;2022-07-23T08:30:12;101923.06;;;19.61;64.44
67009;BME280;53922;52.080;4.748;2022-07-23T08:32:54;101923.09;;;19.58;65.08
67009;BME280;53922;52.080;4.748;2022-07-23T08:35:24;101921.28;;;19.54;63.60
67009;BME280;53922;52.080;4.748;2022-07-23T08:37:49;101914.16;;;19.56;64.88
67009;BME280;53922;52.080;4.748;2022-07-23T08:40:14;101914.16;;;19.62;64.20
67009;BME280;53922;52.080;4.748;2022-07-23T08:42:40;101922.16;;;19.73;64.97
67009;BME280;53922;52.080;4.748;2022-07-23T08:45:06;101918.56;;;19.75;64.52
67009;BME280;53922;52.080;4.748;2022-07-23T08:47:32;101925.66;;;19.81;63.22
67009;BME280;53922;52.080;4.748;2022-07-23T08:49:57;101929.16;;;20.06;63.13
67009;BME280;53922;52.080;4.748;2022-07-23T08:52:23;101926.47;;;20.09;64.14
67009;BME280;53922;52.080;4.748;2022-07-23T08:54:49;101934.38;;;20.31;62.66
67009;BME280;53922;52.080;4.748;2022-07-23T08:57:14;101930.66;;;20.52;61.32
67009;BME280;53922;52.080;4.748;2022-07-23T08:59:40;101925.19;;;20.72;61.29
67009;BME280;53922;52.080;4.748;2022-07-23T09:02:05;101933.84;;;21.04;60.18
67009;BME280;53922;52.080;4.748;2022-07-23T09:04:30;101940.91;;;21.13;58.91
67009;BME280;53922;52.080;4.748;2022-07-23T09:06:56;101940.84;;;21.20;58.19
67009;BME280;53922;52.080;4.748;2022-07-23T09:09:21;101934.63;;;21.18;58.51
67009;BME280;53922;52.080;4.748;2022-07-23T09:12:01;101934.41;;;21.37;58.15
67009;BME280;53922;52.080;4.748;2022-07-23T09:14:41;101939.78;;;21.37;57.58
67009;BME280;53922;52.080;4.748;2022-07-23T09:17:10;101938.78;;;21.46;58.98
67009;BME280;53922;52.080;4.748;2022-07-23T09:19:35;101944.09;;;21.53;58.54
67009;BME280;53922;52.080;4.748;2022-07-23T09:22:16;101935.91;;;21.67;58.72
67009;BME280;53922;52.080;4.748;2022-07-23T09:25:01;101934.91;;;21.75;57.89
67009;BME280;53922;52.080;4.748;2022-07-23T09:27:26;101933.81;;;21.93;56.62
67009;BME280;53922;52.080;4.748;2022-07-23T09:30:09;101934.22;;;22.29;56.70
67009;BME280;53922;52.080;4.748;2022-07-23T09:32:34;101937.44;;;22.54;56.14
67009;BME280;53922;52.080;4.748;2022-07-23T09:35:00;101939.88;;;22.07;55.34
67009;BME280;53922;52.080;4.748;2022-07-23T09:37:25;101936.16;;;22.16;56.83
67009;BME280;53922;52.080;4.748;2022-07-23T09:39:50;101942.31;;;22.26;54.94
67009;BME280;53922;52.080;4.748;2022-07-23T09:42:22;101945.81;;;22.31;55.84
67009;BME280;53922;52.080;4.748;2022-07-23T09:44:49;101936.25;;;22.10;55.75
67009;BME280;53922;52.080;4.748;2022-07-23T09:47:15;101935.22;;;22.21;57.16
67009;BME280;53922;52.080;4.748;2022-07-23T09:49:56;101938.00;;;22.14;55.99
67009;BME280;53922;52.080;4.748;2022-07-23T09:52:25;101943.66;;;22.56;55.87
67009;BME280;53922;52.080;4.748;2022-07-23T09:54:51;101945.09;;;22.80;54.13
67009;BME280;53922;52.080;4.748;2022-07-23T09:57:22;101939.19;;;23.10;53.95
67009;BME280;53922;52.080;4.748;2022-07-23T09:59:47;101936.19;;;23.30;55.87
67009;BME280;53922;52.080;4.748;2022-07-23T10:02:13;101934.56;;;23.66;54.19
67009;BME280;53922;52.080;4.748;2022-07-23T10:04:39;101944.56;;;24.05;53.34
67009;BME280;53922;52.080;4.748;2022-07-23T10:07:07;101945.03;;;24.24;51.69
67009;BME280;53922;52.080;4.748;2022-07-23T10:09:39;101944.03;;;24.30;50.97
67009;BME280;53922;52.080;4.748;2022-07-23T10:12:09;101941.94;;;24.02;52.54
67009;BME280;53922;52.080;4.748;2022-07-23T10:14:43;101932.88;;;24.06;50.48
67009;BME280;53922;52.080;4.748;2022-07-23T10:17:09;101943.41;;;24.17;52.10
67009;BME280;53922;52.080;4.748;2022-07-23T10:19:35;101933.84;;;23.58;51.34
67009;BME280;53922;52.080;4.748;2022-07-23T10:22:04;101941.97;;;23.55;53.88
67009;BME280;53922;52.080;4.748;2022-07-23T10:37:16;101938.50;;;24.74;48.08
67009;BME280;53922;52.080;4.748;2022-07-23T10:39:46;101932.53;;;24.61;49.81
67009;BME280;53922;52.080;4.748;2022-07-23T10:42:12;101936.72;;;25.09;49.72
67009;BME280;53922;52.080;4.748;2022-07-23T10:44:38;101928.41;;;25.17;49.46
67009;BME280;53922;52.080;4.748;2022-07-23T10:47:05;101926.53;;;25.20;49.49
67009;BME280;53922;52.080;4.748;2022-07-23T10:49:34;101920.69;;;25.36;49.67
67009;BME280;53922;52.080;4.748;2022-07-23T10:54:45;101925.88;;;25.76;47.92
67009;BME280;53922;52.080;4.748;2022-07-23T10:57:12;101922.97;;;25.18;47.58
67009;BME280;53922;52.080;4.748;2022-07-23T11:02:21;101938.72;;;25.01;48.93
67009;BME280;53922;52.080;4.748;2022-07-23T11:04:51;101930.06;;;25.22;48.70
67009;BME280;53922;52.080;4.748;2022-07-23T11:07:17;101919.56;;;25.11;47.96
67009;BME280;53922;52.080;4.748;2022-07-23T11:09:42;101929.06;;;24.92;49.37
67009;BME280;53922;52.080;4.748;2022-07-23T11:17:30;101920.41;;;24.79;49.15
67009;BME280;53922;52.080;4.748;2022-07-23T11:20:16;101920.00;;;24.58;48.25
67009;BME280;53922;52.080;4.748;2022-07-23T11:25:06;101927.00;;;24.28;50.51
67009;BME280;53922;52.080;4.748;2022-07-23T11:27:42;101923.66;;;24.93;47.90
67009;BME280;53922;52.080;4.748;2022-07-23T11:30:08;101922.44;;;25.38;48.85
67009;BME280;53922;52.080;4.748;2022-07-23T11:32:35;101932.06;;;25.49;46.67
67009;BME280;53922;52.080;4.748;2022-07-23T11:35:05;101927.59;;;25.79;45.55
67009;BME280;53922;52.080;4.748;2022-07-23T11:37:42;101927.03;;;25.68;46.03
67009;BME280;53922;52.080;4.748;2022-07-23T11:40:10;101926.66;;;25.49;45.75
67009;BME280;53922;52.080;4.748;2022-07-23T11:42:37;101920.75;;;25.01;45.66
67009;BME280;53922;52.080;4.748;2022-07-23T11:45:03;101920.28;;;25.18;48.15
67009;BME280;53922;52.080;4.748;2022-07-23T11:47:28;101918.88;;;25.38;46.26
67009;BME280;53922;52.080;4.748;2022-07-23T11:49:54;101927.00;;;25.35;45.67
67009;BME280;53922;52.080;4.748;2022-07-23T11:52:20;101915.28;;;25.37;46.41
67009;BME280;53922;52.080;4.748;2022-07-23T11:57:20;101911.16;;;24.89;44.33
67009;BME280;53922;52.080;4.748;2022-07-23T11:59:50;101904.47;;;25.04;47.63
67009;BME280;53922;52.080;4.748;2022-07-23T12:02:16;101895.22;;;25.13;46.47
67009;BME280;53922;52.080;4.748;2022-07-23T12:04:42;101897.75;;;25.19;46.81
67009;BME280;53922;52.080;4.748;2022-07-23T12:09:52;101893.44;;;25.14;45.92
67009;BME280;53922;52.080;4.748;2022-07-23T12:12:17;101896.34;;;25.39;44.57
67009;BME280;53922;52.080;4.748;2022-07-23T12:14:52;101894.06;;;25.55;46.03
67009;BME280;53922;52.080;4.748;2022-07-23T12:17:18;101895.66;;;25.31;45.86
67009;BME280;53922;52.080;4.748;2022-07-23T12:19:43;101889.06;;;25.42;46.04
67009;BME280;53922;52.080;4.748;2022-07-23T12:22:09;101887.13;;;25.13;45.23
67009;BME280;53922;52.080;4.748;2022-07-23T12:27:22;101897.13;;;25.09;45.12
67009;BME280;53922;52.080;4.748;2022-07-23T12:29:47;101897.44;;;24.97;45.71
67009;BME280;53922;52.080;4.748;2022-07-23T12:32:19;101900.09;;;25.00;46.41
67009;BME280;53922;52.080;4.748;2022-07-23T12:34:45;101893.72;;;25.03;45.15
67009;BME280;53922;52.080;4.748;2022-07-23T12:37:26;101886.53;;;25.02;44.76
67009;BME280;53922;52.080;4.748;2022-07-23T12:39:52;101882.69;;;25.45;44.26
67009;BME280;53922;52.080;4.748;2022-07-23T12:42:17;101887.03;;;25.81;43.71
67009;BME280;53922;52.080;4.748;2022-07-23T12:45:02;101888.63;;;25.88;42.87
67009;BME280;53922;52.080;4.748;2022-07-23T12:47:27;101891.03;;;25.97;44.04
67009;BME280;53922;52.080;4.748;2022-07-23T12:49:52;101889.13;;;26.01;45.04
67009;BME280;53922;52.080;4.748;2022-07-23T12:52:18;101886.41;;;25.71;46.14
67009;BME280;53922;52.080;4.748;2022-07-23T12:54:43;101876.25;;;25.49;45.54
67009;BME280;53922;52.080;4.748;2022-07-23T12:57:08;101887.53;;;25.64;47.00
67009;BME280;53922;52.080;4.748;2022-07-23T12:59:34;101877.28;;;25.75;46.09
67009;BME280;53922;52.080;4.748;2022-07-23T13:01:59;101877.28;;;25.75;46.04
67009;BME280;53922;52.080;4.748;2022-07-23T13:04:25;101871.88;;;25.75;46.16
67009;BME280;53922;52.080;4.748;2022-07-23T13:06:54;101879.72;;;25.84;46.72
67009;BME280;53922;52.080;4.748;2022-07-23T13:09:20;101880.38;;;25.63;46.12
67009;BME280;53922;52.080;4.748;2022-07-23T13:11:46;101887.00;;;25.51;45.80
67009;BME280;53922;52.080;4.748;2022-07-23T13:14:12;101884.94;;;25.27;45.75
67009;BME280;53922;52.080;4.748;2022-07-23T13:16:37;101884.59;;;25.07;46.26
67009;BME280;53922;52.080;4.748;2022-07-23T13:19:03;101882.22;;;24.94;46.58
67009;BME280;53922;52.080;4.748;2022-07-23T13:21:28;101878.38;;;25.05;46.24